»·PEaware :: N416JK KBLH-KPSP

N416JK :: KBLH-KPSP

FLIGHT INFORMATION

Flight Status: Arrived
Operator: Privately registered:
United States
More flights under this callsign
Pilot: John K. (4202)
Aircraft: CESSNA 206 STATIONAIR
(C206)
More flights by this aircraft type
Origin: KBLH Blythe
United States
Destination: KPSP Palm Springs Intl
United States
More flights between these airports :: More routes between these airports
Route: BLH V16 PSP
File this flight plan on PilotEdge
Remarks:
Altitude:
(Current/Filed)
8,000ft
Speed:
(Current/Filed)
200kts
Departed: 31-Jan-18 10:13 AM
Arrived: 31-Jan-18 10:59 AM
Distance/Time
Traveled:
90nm/0:46
Distance/Time
To Go:
Arrived

Flight Plot

Page will automatically refresh every two minutes.

Flight plan parsing failed; only flown route is shown


Map Options




Map Legend


Flown Route
Filed Route
Departure Airport
Arrival Airport
Navaid (VOR, NDB)
Fix

Horizontal Profiles

Position Reports

Time Latitude Longitude Heading Altitude Ground
Speed
31-Jan-18 10:12 33.614132 -114.713019 7 400ft 0kts
31-Jan-18 10:13 33.614132 -114.713019 7 400ft 0kts
31-Jan-18 10:14 33.614132 -114.713019 7 400ft 0kts
31-Jan-18 10:15 33.615144 -114.710285 90 400ft 25kts
31-Jan-18 10:16 33.615643 -114.706292 36 401ft 0kts
31-Jan-18 10:17 33.615643 -114.706292 36 401ft 0kts
31-Jan-18 10:18 33.616508 -114.707018 271 401ft 0kts
31-Jan-18 10:19 33.612682 -114.723167 231 955ft 91kts
31-Jan-18 10:20 33.600334 -114.745523 248 2418ft 82kts
31-Jan-18 10:21 33.598620 -114.775438 278 3179ft 106kts
31-Jan-18 10:22 33.604656 -114.812048 279 3884ft 115kts
31-Jan-18 10:23 33.610980 -114.849386 279 4571ft 116kts
31-Jan-18 10:24 33.617368 -114.886969 279 5257ft 116kts
31-Jan-18 10:25 33.623481 -114.922851 279 5921ft 106kts
31-Jan-18 10:26 33.629104 -114.956060 279 6607ft 96kts
31-Jan-18 10:27 33.634167 -114.986119 279 7284ft 90kts
31-Jan-18 10:28 33.638951 -115.014587 279 7950ft 88kts
31-Jan-18 10:29 33.644949 -115.050173 280 8002ft 128kts
31-Jan-18 10:30 33.652449 -115.094306 280 8000ft 140kts
31-Jan-18 10:31 33.660264 -115.139556 280 8000ft 139kts
31-Jan-18 10:32 33.667845 -115.184314 279 8000ft 139kts
31-Jan-18 10:33 33.675459 -115.229757 280 7995ft 139kts
31-Jan-18 10:34 33.682961 -115.274703 280 7987ft 139kts
31-Jan-18 10:35 33.690443 -115.319639 280 7978ft 138kts
31-Jan-18 10:36 33.697874 -115.364373 280 7970ft 138kts
31-Jan-18 10:37 33.705394 -115.409751 281 7961ft 138kts
31-Jan-18 10:38 33.712726 -115.454083 281 7954ft 138kts
31-Jan-18 10:39 33.720039 -115.498382 281 7954ft 138kts
31-Jan-18 10:40 33.727330 -115.542675 281 7954ft 138kts
31-Jan-18 10:41 33.734780 -115.588050 281 7954ft 138kts
31-Jan-18 10:42 33.740651 -115.623889 281 7954ft 138kts
31-Jan-18 10:43 33.746761 -115.661258 281 7954ft 138kts
31-Jan-18 10:44 33.754195 -115.706820 281 7954ft 139kts
31-Jan-18 10:45 33.761506 -115.751743 281 7953ft 139kts
31-Jan-18 10:46 33.768796 -115.796635 281 7953ft 138kts
31-Jan-18 10:47 33.776085 -115.841622 281 7953ft 139kts
31-Jan-18 10:48 33.782506 -115.887314 272 7939ft 140kts
31-Jan-18 10:49 33.783240 -115.937079 271 7232ft 157kts
31-Jan-18 10:50 33.783996 -115.986707 271 6983ft 141kts
31-Jan-18 10:51 33.784691 -116.032725 271 6984ft 138kts
31-Jan-18 10:52 33.785393 -116.078945 271 6984ft 138kts
31-Jan-18 10:53 33.786083 -116.124445 271 6985ft 138kts
31-Jan-18 10:54 33.786768 -116.169696 271 6986ft 138kts
31-Jan-18 10:55 33.787558 -116.214387 271 6987ft 128kts
31-Jan-18 10:56 33.781276 -116.258162 254 6060ft 154kts
31-Jan-18 10:57 33.767160 -116.303908 241 4178ft 147kts
31-Jan-18 10:58 33.749131 -116.343870 241 2316ft 125kts
31-Jan-18 10:59 33.744237 -116.377838 269 1781ft 104kts
31-Jan-18 11:00 33.748724 -116.415588 288 1722ft 120kts
31-Jan-18 11:01 33.762832 -116.447175 308 1631ft 104kts
31-Jan-18 11:02 33.785463 -116.468051 322 1437ft 89kts
31-Jan-18 11:03 33.804232 -116.484806 319 1030ft 90kts
31-Jan-18 11:04 33.822577 -116.501326 318 499ft 70kts
31-Jan-18 11:05 33.827863 -116.507194 183 481ft 0kts
31-Jan-18 11:06 33.827863 -116.507194 183 481ft 0kts
31-Jan-18 11:07 33.825299 -116.508496 269 481ft 11kts
31-Jan-18 11:08 33.825699 -116.509839 109 481ft 0kts

Navigation Log

Ident Type
Flight plan parsing failed, navigation log unavailable